createdAt,value
2023-05-10T00:01:24.831Z,14.63
2023-05-10T00:03:26.803Z,14.65
2023-05-10T00:05:28.625Z,14.72
2023-05-10T00:07:30.300Z,14.68
2023-05-10T00:09:31.822Z,14.69
2023-05-10T00:11:33.572Z,14.65
2023-05-10T00:13:35.357Z,14.74
2023-05-10T00:15:36.906Z,14.54
2023-05-10T00:17:38.465Z,14.49
2023-05-10T00:19:39.963Z,14.42
2023-05-10T00:21:41.599Z,14.41
2023-05-10T00:23:43.183Z,14.45
2023-05-10T00:25:44.721Z,14.37
2023-05-10T00:27:46.246Z,14.36
2023-05-10T00:29:47.817Z,14.28
2023-05-10T00:31:49.351Z,13.94
2023-05-10T00:33:50.956Z,13.79
2023-05-10T00:35:52.487Z,13.83
2023-05-10T00:37:54.017Z,13.46
2023-05-10T00:39:56.060Z,13.55
2023-05-10T00:41:57.951Z,13.55
2023-05-10T00:43:59.629Z,13.18
2023-05-10T00:46:01.771Z,13.22
2023-05-10T00:48:05.099Z,13.06
2023-05-10T00:50:07.481Z,13.07
2023-05-10T00:52:09.552Z,13.04
2023-05-10T00:54:13.285Z,12.74
2023-05-10T00:56:15.611Z,12.65
2023-05-10T00:58:17.683Z,12.59
2023-05-10T01:00:19.616Z,12.74
2023-05-10T01:02:21.268Z,12.64
2023-05-10T01:04:26.377Z,12.87
2023-05-10T01:06:28.928Z,12.84
2023-05-10T01:08:30.513Z,12.58
2023-05-10T01:10:32.772Z,12.67
2023-05-10T01:12:39.845Z,12.79
2023-05-10T01:14:41.892Z,12.75
2023-05-10T01:16:45.520Z,12.83
2023-05-10T01:18:48.914Z,12.75
2023-05-10T01:21:04.900Z,12.94
2023-05-10T01:23:43.396Z,12.81
2023-05-10T01:25:59.338Z,12.66
2023-05-10T01:28:35.398Z,12.79
2023-05-10T01:30:56.412Z,12.57
2023-05-10T01:33:12.530Z,12.48
2023-05-10T01:35:18.849Z,12.41
2023-05-10T01:37:39.708Z,12.27
2023-05-10T01:39:50.997Z,12.34
2023-05-10T01:41:56.937Z,12.59
2023-05-10T01:44:06.965Z,12.33
2023-05-10T01:46:17.399Z,12.32
2023-05-10T01:48:21.684Z,12.48
2023-05-10T01:50:31.261Z,12.38
2023-05-10T01:52:39.546Z,12.19
2023-05-10T01:54:45.578Z,12.27
2023-05-10T01:56:54.096Z,12.17
2023-05-10T01:58:56.378Z,11.94
2023-05-10T02:01:01.858Z,11.96
2023-05-10T02:03:07.854Z,11.85
2023-05-10T02:05:13.160Z,11.91
2023-05-10T02:07:15.674Z,11.84
2023-05-10T02:09:18.895Z,11.94
2023-05-10T02:11:22.108Z,11.83
2023-05-10T02:13:27.211Z,11.86
2023-05-10T02:15:30.755Z,11.89
2023-05-10T02:17:33.648Z,11.78
2023-05-10T02:19:37.549Z,11.80
2023-05-10T02:21:40.422Z,11.82
2023-05-10T02:23:43.791Z,11.62
2023-05-10T02:25:46.885Z,11.78
2023-05-10T02:27:49.877Z,11.79
2023-05-10T02:29:52.691Z,11.69
2023-05-10T02:31:55.947Z,11.81
2023-05-10T02:33:58.888Z,11.75
2023-05-10T02:36:02.930Z,11.59
2023-05-10T02:38:06.069Z,11.50
2023-05-10T02:40:09.468Z,11.62
2023-05-10T02:42:16.726Z,11.48
2023-05-10T02:44:23.730Z,11.42
2023-05-10T02:46:25.694Z,11.50
2023-05-10T02:48:27.399Z,11.42
2023-05-10T02:50:33.269Z,11.46
2023-05-10T02:52:45.254Z,11.51
2023-05-10T02:54:51.590Z,11.74
2023-05-10T02:56:58.665Z,11.66
2023-05-10T02:59:00.266Z,11.62
2023-05-10T03:01:01.896Z,11.80
2023-05-10T03:03:04.044Z,11.75
2023-05-10T03:05:06.070Z,11.77
2023-05-10T03:07:08.442Z,11.64
2023-05-10T03:09:12.005Z,11.73
2023-05-10T03:11:22.688Z,11.77
2023-05-10T03:13:40.623Z,11.61
2023-05-10T03:15:50.096Z,11.68
2023-05-10T03:18:03.917Z,11.76
2023-05-10T03:20:12.549Z,11.78
2023-05-10T03:22:23.509Z,11.69
2023-05-10T03:24:29.129Z,11.77
2023-05-10T03:26:33.785Z,11.80
2023-05-10T03:28:44.677Z,11.70
2023-05-10T03:30:47.217Z,11.81
2023-05-10T03:32:49.017Z,11.76
2023-05-10T03:34:52.540Z,11.81
2023-05-10T03:36:54.634Z,11.98
2023-05-10T03:38:56.266Z,11.77
2023-05-10T03:40:58.219Z,11.63
2023-05-10T03:43:00.406Z,11.56
2023-05-10T03:45:02.014Z,11.50
2023-05-10T03:47:04.004Z,11.46
2023-05-10T03:49:06.455Z,11.57
2023-05-10T03:51:08.128Z,11.65
2023-05-10T03:53:09.830Z,11.70
2023-05-10T03:55:11.997Z,11.78
2023-05-10T03:57:13.908Z,11.60
2023-05-10T03:59:16.261Z,11.63
2023-05-10T04:01:17.753Z,11.70
2023-05-10T04:03:19.379Z,11.58
2023-05-10T04:05:21.246Z,11.56
2023-05-10T04:07:22.887Z,11.57
2023-05-10T04:09:25.002Z,11.54
2023-05-10T04:11:26.804Z,11.38
2023-05-10T04:13:28.549Z,11.36
2023-05-10T04:15:30.044Z,11.48
2023-05-10T04:17:32.506Z,11.32
2023-05-10T04:19:34.777Z,11.41
2023-05-10T04:21:37.563Z,11.51
2023-05-10T04:23:39.586Z,11.75
2023-05-10T04:25:41.806Z,11.66
2023-05-10T04:27:43.630Z,11.60
2023-05-10T04:29:45.502Z,11.81
2023-05-10T04:31:46.986Z,11.91
2023-05-10T04:33:48.532Z,11.51
2023-05-10T04:35:50.057Z,11.37
2023-05-10T04:37:52.597Z,11.44
2023-05-10T04:39:54.778Z,11.54
2023-05-10T04:41:56.539Z,11.49
2023-05-10T04:43:58.078Z,11.42
2023-05-10T04:45:59.767Z,11.41
2023-05-10T04:48:01.844Z,11.47
2023-05-10T04:50:07.275Z,11.59
2023-05-10T04:52:09.321Z,11.60
2023-05-10T04:54:11.294Z,11.80
2023-05-10T04:56:13.136Z,11.59
2023-05-10T04:58:14.868Z,11.59
2023-05-10T05:00:17.233Z,11.55
2023-05-10T05:02:19.154Z,11.71
2023-05-10T05:04:20.692Z,11.76
2023-05-10T05:06:22.302Z,11.81
2023-05-10T05:08:24.846Z,11.92
2023-05-10T05:10:26.340Z,11.72
2023-05-10T05:12:27.811Z,11.88
2023-05-10T05:14:29.601Z,11.96
2023-05-10T05:16:32.623Z,11.80
2023-05-10T05:18:34.390Z,11.75
2023-05-10T05:20:36.150Z,11.90
2023-05-10T05:22:38.305Z,11.85
2023-05-10T05:24:39.828Z,11.89
2023-05-10T05:26:41.519Z,11.96
2023-05-10T05:28:43.036Z,12.04
2023-05-10T05:30:45.355Z,11.96
2023-05-10T05:32:48.245Z,12.13
2023-05-10T05:34:49.923Z,12.17
2023-05-10T05:36:51.430Z,12.11
2023-05-10T05:38:53.076Z,12.08
2023-05-10T05:40:54.876Z,11.97
2023-05-10T05:42:56.353Z,12.11
2023-05-10T05:44:58.383Z,12.08
2023-05-10T05:46:59.969Z,11.73
2023-05-10T05:49:01.457Z,11.78
2023-05-10T05:51:03.429Z,11.77
2023-05-10T05:53:06.999Z,11.90
2023-05-10T05:55:09.097Z,11.99
2023-05-10T05:57:10.983Z,12.13
2023-05-10T05:59:12.724Z,12.14
2023-05-10T06:01:14.420Z,12.07
2023-05-10T06:03:16.529Z,12.18
2023-05-10T06:05:18.633Z,12.25
2023-05-10T06:07:20.257Z,12.30
2023-05-10T06:09:22.148Z,12.53
2023-05-10T06:11:23.867Z,12.24
2023-05-10T06:13:25.549Z,12.16
2023-05-10T06:15:28.103Z,12.02
2023-05-10T06:17:29.737Z,12.00
2023-05-10T06:19:31.979Z,12.27
2023-05-10T06:21:33.531Z,12.30
2023-05-10T06:23:35.292Z,12.32
2023-05-10T06:25:36.837Z,12.02
2023-05-10T06:27:38.365Z,12.21
2023-05-10T06:29:40.253Z,12.24
2023-05-10T06:31:41.930Z,12.09
2023-05-10T06:33:43.736Z,12.25
2023-05-10T06:35:45.483Z,12.57
2023-05-10T06:37:47.703Z,12.49
2023-05-10T06:39:49.723Z,12.62
2023-05-10T06:41:51.441Z,12.77
2023-05-10T06:43:54.857Z,12.70
2023-05-10T06:45:56.762Z,12.79
2023-05-10T06:47:58.367Z,13.09
2023-05-10T06:50:00.176Z,12.47
2023-05-10T06:52:02.126Z,12.30
2023-05-10T06:54:04.300Z,12.22
2023-05-10T06:56:06.094Z,12.33
2023-05-10T06:58:07.791Z,12.41
2023-05-10T07:00:10.701Z,12.23
2023-05-10T07:02:12.552Z,12.11
2023-05-10T07:04:14.717Z,12.22
2023-05-10T07:06:29.480Z,12.28
2023-05-10T07:08:35.370Z,12.26
2023-05-10T07:10:37.179Z,12.06
2023-05-10T07:12:39.448Z,12.00
2023-05-10T07:14:41.145Z,12.02
2023-05-10T07:16:43.060Z,12.12
2023-05-10T07:18:44.856Z,12.19
2023-05-10T07:20:46.496Z,12.30
2023-05-10T07:22:48.033Z,12.44
2023-05-10T07:24:49.874Z,12.53
2023-05-10T07:26:51.404Z,12.37
2023-05-10T07:28:53.043Z,12.65
2023-05-10T07:30:54.680Z,12.17
2023-05-10T07:32:56.402Z,12.06
2023-05-10T07:34:57.997Z,12.17
2023-05-10T07:37:00.026Z,12.15
2023-05-10T07:39:01.782Z,12.12
2023-05-10T07:41:03.526Z,12.22
2023-05-10T07:43:05.043Z,12.16
2023-05-10T07:45:07.370Z,12.16
2023-05-10T07:47:09.166Z,12.22
2023-05-10T07:49:10.970Z,12.57
2023-05-10T07:51:12.918Z,12.45
2023-05-10T07:53:14.517Z,12.58
2023-05-10T07:55:16.986Z,12.45
2023-05-10T07:57:19.258Z,12.32
2023-05-10T07:59:21.015Z,12.37
2023-05-10T08:01:23.552Z,12.68
2023-05-10T08:03:25.754Z,12.73
2023-05-10T08:05:27.513Z,12.99
2023-05-10T08:07:29.125Z,13.17
2023-05-10T08:09:30.637Z,13.00
2023-05-10T08:11:33.716Z,12.83
2023-05-10T08:13:36.535Z,13.06
2023-05-10T08:15:38.120Z,13.02
2023-05-10T08:17:40.289Z,13.13
2023-05-10T08:19:41.914Z,13.27
2023-05-10T08:21:43.484Z,13.39
2023-05-10T08:23:45.251Z,13.30
2023-05-10T08:25:46.936Z,13.21
2023-05-10T08:27:48.455Z,13.22
2023-05-10T08:29:50.701Z,13.34
2023-05-10T08:31:52.355Z,13.55
2023-05-10T08:33:53.958Z,13.65
2023-05-10T08:35:55.537Z,13.11
2023-05-10T08:37:57.047Z,13.27
2023-05-10T08:39:58.675Z,13.27
2023-05-10T08:42:02.494Z,13.30
2023-05-10T08:44:06.297Z,13.50
2023-05-10T08:46:10.024Z,13.55
2023-05-10T08:48:12.963Z,13.33
2023-05-10T08:50:17.171Z,13.28
2023-05-10T08:52:19.555Z,13.36
2023-05-10T08:54:22.681Z,13.78
2023-05-10T08:56:25.066Z,13.66
2023-05-10T08:58:26.651Z,13.84
2023-05-10T09:00:29.524Z,13.95
2023-05-10T09:02:31.483Z,14.10
2023-05-10T09:04:33.980Z,14.40
2023-05-10T09:06:36.254Z,14.61
2023-05-10T09:08:38.389Z,14.30
2023-05-10T09:10:41.169Z,14.07
2023-05-10T09:12:45.200Z,14.31
2023-05-10T09:14:47.387Z,14.45
2023-05-10T09:16:48.973Z,14.40
2023-05-10T09:18:50.831Z,14.50
2023-05-10T09:20:52.790Z,14.93
2023-05-10T09:22:54.369Z,15.32
2023-05-10T09:25:13.336Z,15.19
2023-05-10T09:27:14.932Z,14.90
2023-05-10T09:29:17.850Z,14.64
2023-05-10T09:31:21.258Z,14.40
2023-05-10T09:33:23.233Z,14.33
2023-05-10T09:35:29.700Z,14.30
2023-05-10T09:37:31.621Z,14.53
2023-05-10T09:39:35.353Z,14.45
2023-05-10T09:41:37.861Z,14.56
2023-05-10T09:43:39.432Z,14.80
2023-05-10T09:45:42.222Z,14.75
2023-05-10T09:47:43.926Z,14.86
2023-05-10T09:49:51.013Z,15.17
2023-05-10T09:52:02.384Z,14.92
2023-05-10T09:54:17.828Z,14.91
2023-05-10T09:56:35.039Z,14.93
2023-05-10T09:58:39.085Z,15.03
2023-05-10T10:00:42.628Z,15.17
2023-05-10T10:02:46.039Z,15.23
2023-05-10T10:04:50.847Z,15.08
2023-05-10T10:07:01.363Z,15.49
2023-05-10T10:09:03.017Z,16.08
2023-05-10T10:11:05.176Z,16.12
2023-05-10T10:13:07.265Z,15.84
2023-05-10T10:15:09.973Z,15.92
2023-05-10T10:17:12.857Z,16.19
2023-05-10T10:19:15.704Z,16.30
2023-05-10T10:21:17.838Z,16.00
2023-05-10T10:23:19.478Z,16.02
2023-05-10T10:25:24.995Z,15.99
2023-05-10T10:27:42.329Z,15.82
2023-05-10T10:29:58.960Z,15.62
2023-05-10T10:32:31.354Z,15.99
2023-05-10T10:34:33.318Z,15.83
2023-05-10T10:36:46.646Z,15.83
2023-05-10T10:38:48.115Z,15.89
2023-05-10T10:41:02.457Z,15.48
2023-05-10T10:43:27.060Z,15.15
2023-05-10T10:45:28.689Z,15.76
2023-05-10T10:47:33.878Z,15.98
2023-05-10T10:49:44.767Z,15.93
2023-05-10T10:52:19.244Z,15.83
2023-05-10T10:54:29.319Z,16.19
2023-05-10T10:56:30.999Z,15.97
2023-05-10T10:58:35.299Z,16.63
2023-05-10T11:00:38.821Z,17.12
2023-05-10T11:02:43.407Z,17.16
2023-05-10T11:04:47.770Z,16.87
2023-05-10T11:06:49.436Z,16.94
2023-05-10T11:08:53.637Z,17.01
2023-05-10T11:11:00.831Z,17.11
2023-05-10T11:13:09.405Z,16.98
2023-05-10T11:15:11.027Z,17.09
2023-05-10T11:17:30.377Z,16.73
2023-05-10T11:19:32.312Z,16.41
2023-05-10T11:21:35.111Z,16.85
2023-05-10T11:23:51.552Z,16.32
2023-05-10T11:25:53.059Z,16.49
2023-05-10T11:27:54.568Z,15.97
2023-05-10T11:29:56.367Z,15.54
2023-05-10T11:32:00.143Z,15.09
2023-05-10T11:34:06.191Z,15.38
2023-05-10T11:36:12.088Z,15.52
2023-05-10T11:38:14.385Z,15.41
2023-05-10T11:40:17.353Z,15.73
2023-05-10T11:42:19.250Z,15.68
2023-05-10T11:44:20.976Z,15.95
2023-05-10T11:46:24.895Z,16.35
2023-05-10T11:48:26.466Z,16.33
2023-05-10T11:50:28.268Z,16.12
2023-05-10T11:52:37.594Z,15.99
2023-05-10T11:54:46.227Z,15.80
2023-05-10T11:56:47.788Z,15.98
2023-05-10T11:58:58.338Z,16.51
2023-05-10T12:01:00.905Z,16.71
2023-05-10T12:03:03.340Z,16.59
2023-05-10T12:05:07.096Z,16.89
2023-05-10T12:07:08.906Z,17.37
2023-05-10T12:09:10.712Z,18.11
2023-05-10T12:11:13.722Z,18.18
2023-05-10T12:13:16.480Z,18.24
2023-05-10T12:15:22.214Z,18.78
2023-05-10T12:17:28.508Z,19.15
2023-05-10T12:19:38.073Z,18.54
2023-05-10T12:21:39.980Z,18.81
2023-05-10T12:23:42.457Z,17.56
2023-05-10T12:25:44.499Z,17.95
2023-05-10T12:27:57.144Z,17.77
2023-05-10T12:30:01.188Z,17.35
2023-05-10T12:32:03.752Z,16.59
2023-05-10T12:34:05.462Z,16.35
2023-05-10T12:36:07.769Z,16.36
2023-05-10T12:38:29.872Z,16.88
2023-05-10T12:40:31.890Z,16.78
2023-05-10T12:42:33.983Z,16.88
2023-05-10T12:44:35.809Z,16.74
2023-05-10T12:46:37.615Z,16.59
2023-05-10T12:48:40.898Z,16.79
2023-05-10T12:50:42.608Z,16.49
2023-05-10T12:52:44.198Z,16.40
2023-05-10T12:54:45.830Z,15.67
2023-05-10T12:56:47.342Z,15.69
2023-05-10T12:58:49.183Z,15.51
2023-05-10T13:00:52.656Z,15.49
2023-05-10T13:02:54.941Z,15.72
2023-05-10T13:04:56.571Z,15.69
2023-05-10T13:06:59.892Z,16.03
2023-05-10T13:09:01.585Z,15.82
2023-05-10T13:11:03.817Z,15.92
2023-05-10T13:13:06.167Z,16.39
2023-05-10T13:15:08.573Z,16.55
2023-05-10T13:17:10.203Z,16.70
2023-05-10T13:19:12.665Z,16.00
2023-05-10T13:21:14.483Z,16.40
2023-05-10T13:23:16.139Z,16.54
2023-05-10T13:25:18.166Z,16.36
2023-05-10T13:27:19.821Z,16.89
2023-05-10T13:29:23.402Z,17.46
2023-05-10T13:31:25.011Z,17.71
2023-05-10T13:33:27.573Z,17.77
2023-05-10T13:35:29.121Z,18.14
2023-05-10T13:37:32.182Z,18.56
2023-05-10T13:39:35.682Z,18.89
2023-05-10T13:41:37.955Z,19.39
2023-05-10T13:43:39.558Z,19.44
2023-05-10T13:45:41.132Z,19.10
2023-05-10T13:47:42.624Z,19.21
2023-05-10T13:49:44.347Z,18.22
2023-05-10T13:51:46.071Z,18.63
2023-05-10T13:53:48.094Z,19.26
2023-05-10T13:55:50.000Z,19.00
2023-05-10T13:57:52.083Z,19.61
2023-05-10T13:59:55.878Z,19.56
2023-05-10T14:02:00.963Z,19.49
2023-05-10T14:04:03.235Z,19.97
2023-05-10T14:06:04.876Z,20.11
2023-05-10T14:08:06.723Z,20.07
2023-05-10T14:10:08.623Z,20.55
2023-05-10T14:12:10.539Z,20.52
2023-05-10T14:14:13.547Z,20.20
2023-05-10T14:16:16.149Z,19.63
2023-05-10T14:18:18.312Z,20.19
2023-05-10T14:20:20.076Z,19.97
2023-05-10T14:22:21.915Z,20.16
2023-05-10T14:24:23.866Z,20.14
2023-05-10T14:26:26.309Z,20.01
2023-05-10T14:28:27.967Z,20.02
2023-05-10T14:30:29.617Z,20.13
2023-05-10T14:32:33.234Z,20.49
2023-05-10T14:34:35.146Z,20.72
2023-05-10T14:36:36.987Z,20.65
2023-05-10T14:38:38.550Z,20.04
2023-05-10T14:40:40.434Z,19.90
2023-05-10T14:42:43.455Z,19.53
2023-05-10T14:44:44.985Z,19.76
2023-05-10T14:46:46.498Z,19.65
2023-05-10T14:48:48.151Z,20.03
2023-05-10T14:50:51.180Z,20.54
2023-05-10T14:52:52.760Z,20.55
2023-05-10T14:54:54.853Z,20.79
2023-05-10T14:56:56.412Z,20.15
2023-05-10T14:58:57.999Z,20.63
2023-05-10T15:01:00.569Z,20.71
2023-05-10T15:03:03.572Z,19.70
2023-05-10T15:05:05.772Z,20.07
2023-05-10T15:07:07.715Z,20.08
2023-05-10T15:09:09.843Z,19.58
2023-05-10T15:11:11.406Z,19.07
2023-05-10T15:13:12.973Z,19.22
2023-05-10T15:15:14.846Z,19.52
2023-05-10T15:17:17.150Z,19.73
2023-05-10T15:19:21.260Z,19.92
2023-05-10T15:21:22.792Z,20.16
2023-05-10T15:23:24.384Z,20.10
2023-05-10T15:25:26.143Z,20.35
2023-05-10T15:27:27.788Z,20.36
2023-05-10T15:29:30.545Z,20.43
2023-05-10T15:31:32.088Z,20.41
2023-05-10T15:33:33.704Z,20.60
2023-05-10T15:35:36.702Z,20.64
2023-05-10T15:37:39.132Z,20.54
2023-05-10T15:39:40.968Z,20.46
2023-05-10T15:41:42.818Z,20.38
2023-05-10T15:43:44.547Z,20.33
2023-05-10T15:45:46.396Z,20.43
2023-05-10T15:47:48.924Z,20.32
2023-05-10T15:49:50.689Z,20.45
2023-05-10T15:51:52.211Z,20.48
2023-05-10T15:54:05.954Z,20.33
2023-05-10T15:56:09.162Z,20.31
2023-05-10T15:58:11.567Z,20.46
2023-05-10T16:00:14.227Z,20.53
2023-05-10T16:02:15.985Z,20.62
2023-05-10T16:04:18.306Z,20.64
2023-05-10T16:06:20.061Z,20.59
2023-05-10T16:08:21.692Z,20.56
2023-05-10T16:10:23.397Z,20.69
2023-05-10T16:12:25.005Z,20.69
2023-05-10T16:14:26.720Z,20.60
2023-05-10T16:16:28.328Z,20.56
2023-05-10T16:18:29.950Z,20.45
2023-05-10T16:20:32.993Z,20.42
2023-05-10T16:22:35.468Z,20.41
2023-05-10T16:24:36.979Z,20.41
2023-05-10T16:26:40.843Z,20.33
2023-05-10T16:28:42.846Z,20.28
2023-05-10T16:30:44.486Z,20.33
2023-05-10T16:32:46.105Z,20.31
2023-05-10T16:34:47.979Z,20.16
2023-05-10T16:36:49.919Z,20.05
2023-05-10T16:38:52.156Z,19.73
2023-05-10T16:40:54.228Z,19.69
2023-05-10T16:42:55.728Z,19.79
2023-05-10T16:44:57.357Z,19.61
2023-05-10T16:46:59.186Z,19.42
2023-05-10T16:49:01.377Z,18.84
2023-05-10T16:51:04.468Z,18.80
2023-05-10T16:53:06.593Z,18.77
2023-05-10T16:55:08.626Z,18.81
2023-05-10T16:57:10.638Z,18.71
2023-05-10T16:59:12.153Z,18.68
2023-05-10T17:01:13.795Z,18.84
2023-05-10T17:03:15.927Z,18.61
2023-05-10T17:05:18.109Z,18.74
2023-05-10T17:07:20.099Z,18.55
2023-05-10T17:09:21.931Z,17.88
2023-05-10T17:11:23.500Z,17.94
2023-05-10T17:13:24.984Z,18.12
2023-05-10T17:15:26.794Z,18.29
2023-05-10T17:17:28.682Z,18.36
2023-05-10T17:19:30.636Z,18.01
2023-05-10T17:21:32.388Z,18.09
2023-05-10T17:23:34.340Z,18.04
2023-05-10T17:25:36.620Z,17.94
2023-05-10T17:27:38.363Z,18.02
2023-05-10T17:29:40.032Z,17.98
2023-05-10T17:31:42.247Z,17.66
2023-05-10T17:33:44.077Z,17.41
2023-05-10T17:35:46.723Z,17.58
2023-05-10T17:37:48.764Z,17.08
2023-05-10T17:39:50.604Z,16.50
2023-05-10T17:41:52.217Z,16.41
2023-05-10T17:43:54.014Z,16.65
2023-05-10T17:45:55.587Z,16.56
2023-05-10T17:47:57.401Z,16.33
2023-05-10T17:49:59.217Z,16.21
2023-05-10T17:52:00.788Z,16.31
2023-05-10T17:54:02.568Z,16.14
2023-05-10T17:56:04.315Z,16.19
2023-05-10T17:58:05.914Z,16.06
2023-05-10T18:00:09.101Z,15.90
2023-05-10T18:02:10.677Z,15.84
2023-05-10T18:04:12.193Z,15.89
2023-05-10T18:06:14.109Z,15.83
2023-05-10T18:08:15.936Z,15.65
2023-05-10T18:10:17.425Z,15.58
2023-05-10T18:12:19.211Z,15.52
2023-05-10T18:14:35.895Z,15.40
2023-05-10T18:16:43.055Z,15.48
2023-05-10T18:18:44.943Z,15.25
2023-05-10T18:20:46.786Z,15.13
2023-05-10T18:22:48.364Z,15.20
2023-05-10T18:24:49.917Z,15.07
2023-05-10T18:26:51.986Z,14.79
2023-05-10T18:28:53.448Z,14.67
2023-05-10T18:30:55.217Z,14.48
2023-05-10T18:32:57.943Z,14.19
2023-05-10T18:34:59.593Z,14.10
2023-05-10T18:37:02.362Z,14.04
2023-05-10T18:39:05.504Z,14.09
2023-05-10T18:41:07.656Z,13.97
2023-05-10T18:43:09.292Z,14.03
2023-05-10T18:45:11.570Z,13.90
2023-05-10T18:47:13.267Z,13.78
2023-05-10T18:49:14.818Z,13.74
2023-05-10T18:51:16.637Z,13.65
2023-05-10T18:53:18.397Z,13.68
2023-05-10T18:55:20.167Z,13.70
2023-05-10T18:57:22.101Z,13.69
2023-05-10T18:59:23.707Z,13.58
2023-05-10T19:01:25.377Z,13.43
2023-05-10T19:03:28.512Z,13.42
2023-05-10T19:05:31.481Z,13.55
2023-05-10T19:07:33.669Z,13.51
2023-05-10T19:09:35.552Z,13.62
2023-05-10T19:11:37.139Z,13.55
2023-05-10T19:13:38.652Z,13.47
2023-05-10T19:15:40.844Z,13.56
2023-05-10T19:17:43.313Z,13.53
2023-05-10T19:19:45.942Z,13.43
2023-05-10T19:21:48.093Z,13.18
2023-05-10T19:23:49.799Z,13.16
2023-05-10T19:25:51.842Z,13.12
2023-05-10T19:27:53.424Z,12.93
2023-05-10T19:29:55.742Z,12.80
2023-05-10T19:31:58.090Z,12.70
2023-05-10T19:34:00.857Z,12.63
2023-05-10T19:36:04.171Z,12.55
2023-05-10T19:38:05.872Z,12.56
2023-05-10T19:40:09.593Z,12.54
2023-05-10T19:42:11.586Z,12.43
2023-05-10T19:44:13.452Z,12.36
2023-05-10T19:46:17.117Z,12.47
2023-05-10T19:48:19.490Z,12.60
2023-05-10T19:50:21.015Z,12.69
2023-05-10T19:52:22.680Z,12.67
2023-05-10T19:54:24.331Z,12.73
2023-05-10T19:56:26.929Z,12.82
2023-05-10T19:58:29.776Z,12.88
2023-05-10T20:00:31.946Z,12.76
2023-05-10T20:02:33.794Z,12.73
2023-05-10T20:04:35.751Z,12.67
2023-05-10T20:06:37.335Z,12.54
2023-05-10T20:08:39.040Z,12.49
2023-05-10T20:10:40.530Z,12.28
2023-05-10T20:12:50.806Z,12.24
2023-05-10T20:14:52.361Z,12.15
2023-05-10T20:16:53.904Z,12.17
2023-05-10T20:18:55.563Z,11.94
2023-05-10T20:20:59.480Z,11.67
2023-05-10T20:23:01.324Z,11.55
2023-05-10T20:25:03.071Z,11.46
2023-05-10T20:27:04.806Z,11.46
2023-05-10T20:29:06.984Z,11.42
2023-05-10T20:31:10.170Z,11.50
2023-05-10T20:33:11.849Z,11.63
2023-05-10T20:35:13.577Z,11.69
2023-05-10T20:37:17.640Z,11.71
2023-05-10T20:39:19.141Z,11.69
2023-05-10T20:41:20.866Z,11.78
2023-05-10T20:43:22.419Z,11.77
2023-05-10T20:45:24.152Z,11.78
2023-05-10T20:47:26.353Z,11.74
2023-05-10T20:49:28.135Z,11.72
2023-05-10T20:51:30.610Z,11.75
2023-05-10T20:53:32.230Z,11.74
2023-05-10T20:55:33.793Z,11.68
2023-05-10T20:57:35.515Z,11.61
2023-05-10T20:59:37.257Z,11.54
2023-05-10T21:01:38.896Z,11.44
2023-05-10T21:03:41.047Z,11.38
2023-05-10T21:05:42.613Z,11.32
2023-05-10T21:07:44.155Z,11.29
2023-05-10T21:09:45.785Z,11.24
2023-05-10T21:11:47.334Z,11.45
2023-05-10T21:13:48.843Z,11.42
2023-05-10T21:15:50.812Z,11.30
2023-05-10T21:17:53.857Z,11.35
2023-05-10T21:19:55.703Z,11.41
2023-05-10T21:21:58.909Z,11.57
2023-05-10T21:24:00.605Z,11.67
2023-05-10T21:26:03.215Z,11.62
2023-05-10T21:28:05.288Z,11.63
2023-05-10T21:30:07.721Z,11.66
2023-05-10T21:32:09.526Z,11.80
2023-05-10T21:34:11.346Z,11.86
2023-05-10T21:36:13.180Z,11.83
2023-05-10T21:38:15.819Z,11.94
2023-05-10T21:40:17.865Z,11.91
2023-05-10T21:42:19.856Z,11.91
2023-05-10T21:44:27.659Z,12.05
2023-05-10T21:46:29.561Z,12.01
2023-05-10T21:48:31.187Z,12.00
2023-05-10T21:50:32.690Z,12.04
2023-05-10T21:52:34.216Z,12.15
2023-05-10T21:54:37.191Z,12.21
2023-05-10T21:56:38.729Z,12.24
2023-05-10T21:58:40.712Z,12.28
2023-05-10T22:00:42.313Z,12.25
2023-05-10T22:02:43.980Z,12.15
2023-05-10T22:04:45.775Z,12.16
2023-05-10T22:06:48.934Z,12.11
2023-05-10T22:08:51.014Z,12.10
2023-05-10T22:10:52.792Z,12.11
2023-05-10T22:12:54.382Z,12.16
2023-05-10T22:15:09.496Z,12.09
2023-05-10T22:17:12.038Z,11.91
2023-05-10T22:19:13.594Z,11.91
2023-05-10T22:21:15.184Z,11.83
2023-05-10T22:23:16.720Z,11.56
2023-05-10T22:25:18.509Z,11.65
2023-05-10T22:27:20.040Z,11.54
2023-05-10T22:29:22.513Z,11.64
2023-05-10T22:31:24.113Z,11.36
2023-05-10T22:33:25.641Z,11.16
2023-05-10T22:35:27.555Z,11.06
2023-05-10T22:37:29.108Z,10.97
2023-05-10T22:39:30.650Z,10.80
2023-05-10T22:41:33.266Z,10.73
2023-05-10T22:43:34.767Z,10.64
2023-05-10T22:45:36.366Z,10.58
2023-05-10T22:47:38.063Z,10.48
2023-05-10T22:49:39.594Z,10.41
2023-05-10T22:51:41.173Z,10.38
2023-05-10T22:53:43.344Z,10.33
2023-05-10T22:55:45.457Z,10.33
2023-05-10T22:57:47.299Z,10.30
2023-05-10T22:59:49.121Z,10.28
2023-05-10T23:01:50.991Z,10.26
2023-05-10T23:03:52.679Z,10.14
2023-05-10T23:05:54.282Z,10.24
2023-05-10T23:07:55.812Z,10.27
2023-05-10T23:09:57.333Z,10.32
2023-05-10T23:11:58.883Z,10.21
2023-05-10T23:14:00.446Z,10.14
2023-05-10T23:16:06.533Z,10.02
2023-05-10T23:18:09.508Z,10.02
2023-05-10T23:20:11.902Z,9.92
2023-05-10T23:22:13.871Z,10.06
2023-05-10T23:24:15.493Z,10.06
2023-05-10T23:26:17.033Z,9.98
2023-05-10T23:28:19.187Z,10.01
2023-05-10T23:30:20.931Z,9.81
2023-05-10T23:32:22.848Z,9.86
2023-05-10T23:34:24.521Z,9.83
2023-05-10T23:36:26.280Z,9.68
2023-05-10T23:38:28.011Z,9.61
2023-05-10T23:40:30.035Z,9.62
2023-05-10T23:42:32.696Z,9.59
2023-05-10T23:44:34.196Z,9.63
2023-05-10T23:46:36.015Z,9.50
2023-05-10T23:48:37.543Z,9.56
2023-05-10T23:50:44.364Z,9.58
2023-05-10T23:52:45.924Z,9.49
2023-05-10T23:54:47.509Z,9.53
2023-05-10T23:56:51.711Z,9.39
2023-05-10T23:58:53.209Z,9.41
